Tropical Cyclones
[Index]
Main Index Home Page Stock Weather Photos Extreme Storms Discussion Storm News and Storm Chasing Reports Tropical Cyclones / Hurricanes / Typhoons Weather Data and Links Wild Fires / Bushfires Weather Observation Techniques Weather Picture Catalogue Tornado Pictures and Reports Stock Video Footage and DVDs for sale
Season 1987-1988 Tropical Cyclone FREDERIC Track Map
Season 1987-1988 Summaries: [BoM-AU] [JTWC-AU] [JTWC-SIO] [JTWC-SPAC] [JTWC-SH]
<<- Previous TC | BoM 1987-1988 Season | Next TC ->>

click for intensity scale information  Lat/long Grid: Show Hide

 Date Labels: Show Hide

Bureau of Meteorology Tropical Cyclone Data

Name: FREDERIC
Number: 703 / 198788_02

28 Jan 1988 00:00 UTC to 02 Feb 1988 00:00 UTC

    date/time    lat    long    hPa   cat  kts
1988-01-28 00    6.9    99.5   1003         25          
1988-01-28 06    6.8    98.8   1003         25          
1988-01-28 12    6.9    98.3   1002         25          
1988-01-28 18    7.2    98.6   1001         25          
1988-01-29 00    7.6    99.0   1001         25          
1988-01-29 06    8.2    98.6   1000         25          
1988-01-29 12    8.8    98.4    999         30          
1988-01-29 18    9.3    98.1    998         35          
1988-01-30 00   10.0    97.7    996         35          
1988-01-30 06   10.6    97.2    994    1    40          
1988-01-30 09   11.1    97.1    993    1    40          
1988-01-30 12   11.6    97.1    992    1    40          
1988-01-30 15   12.1    97.1    990    1    50          
1988-01-30 18   12.6    96.8    988    1    55          
1988-01-30 21   13.2    96.7    985    2    60          
1988-01-31 00   13.7    96.5    981    2    70          
1988-01-31 06   15.1    96.2    973    2    80          
1988-01-31 12   16.2    96.0    961    3    85          
1988-01-31 18   17.4    95.6    955    4    80          
1988-02-01 00   18.2    95.5    966    3    65          
1988-02-01 06   18.8    95.4    978    2    55          
1988-02-01 12   18.8    95.2    986    1    45          
1988-02-01 18   18.7    95.1    992    1    35          
1988-02-02 00   18.6    95.0   1000         30          
Winds are 10-min average.

Tropical cyclone tracks developed by Michael Bath using data from the Bureau of Meteorology and Google Maps.


[Australian Severe Weather index] [Copyright Notice] [Email Contacts] [Search This Site] [Privacy Policy]
Document: tropical_cyclone_frederic.htm Updated: 4 April 2018